Santa Barbara, California
Current Conditions -  °F | °C
As of 3:53 PM on Tuesday 25 Nov 2014 (Local Time) from KSBA Reporting Station
Clear Clear  
Wind Chill: 22°   Ceiling: Unl
Heat Index: 22°   Visibility: 10mi
Dew Point: -1°   Wind: 8mph
Humidity: 22%   Direction: 270°W
Pressure: 30.26"   Gusts: NA
Location:  34.42°N, 119.69°W
Report Text: KSBA 252353Z 27007KT 10SM CLR 22/M01 A3026 RMK AO2 SLP247 T02171011 10250 20217 58014
Loading
Personal Weather Stations






























Interactive Weather Map New forecast layout! Learn more

10-Day Weather Forecast

Advertisements
Track Severe Weather on mobile